sensor_id;sensor_type;location;lat;lon;timestamp;pressure;altitude;pressure_sealevel;temperature;humidity
59190;BME280;50749;51.636;4.948;2023-04-01T00:00:31;99169.44;;;18.08;55.87
59190;BME280;50749;51.636;4.948;2023-04-01T00:03:13;99173.41;;;18.07;55.92
59190;BME280;50749;51.636;4.948;2023-04-01T00:05:39;99177.34;;;18.06;56.21
59190;BME280;50749;51.636;4.948;2023-04-01T00:08:06;99182.88;;;18.06;56.41
59190;BME280;50749;51.636;4.948;2023-04-01T00:10:31;99171.03;;;18.06;55.99
59190;BME280;50749;51.636;4.948;2023-04-01T00:12:57;99186.81;;;18.05;56.01
59190;BME280;50749;51.636;4.948;2023-04-01T00:15:23;99178.13;;;18.03;55.92
59190;BME280;50749;51.636;4.948;2023-04-01T00:17:49;99192.75;;;18.04;56.22
59190;BME280;50749;51.636;4.948;2023-04-01T00:20:14;99189.19;;;18.03;56.26
59190;BME280;50749;51.636;4.948;2023-04-01T00:22:41;99198.66;;;18.02;55.98
59190;BME280;50749;51.636;4.948;2023-04-01T00:25:07;99195.91;;;18.02;56.31
59190;BME280;50749;51.636;4.948;2023-04-01T00:27:33;99195.91;;;18.02;56.14
59190;BME280;50749;51.636;4.948;2023-04-01T00:29:58;99203.81;;;18.00;56.05
59190;BME280;50749;51.636;4.948;2023-04-01T00:32:24;99201.03;;;18.00;56.31
59190;BME280;50749;51.636;4.948;2023-04-01T00:34:52;99203.81;;;18.00;55.89
59190;BME280;50749;51.636;4.948;2023-04-01T00:37:19;99208.97;;;17.98;56.21
59190;BME280;50749;51.636;4.948;2023-04-01T00:39:46;99207.78;;;17.99;56.44
59190;BME280;50749;51.636;4.948;2023-04-01T00:42:13;99213.31;;;17.99;56.02
59190;BME280;50749;51.636;4.948;2023-04-01T00:44:39;99218.03;;;17.98;56.20
59190;BME280;50749;51.636;4.948;2023-04-01T00:47:06;99213.72;;;17.97;56.21
59190;BME280;50749;51.636;4.948;2023-04-01T00:49:43;99212.50;;;17.95;56.29
59190;BME280;50749;51.636;4.948;2023-04-01T00:52:13;99220.81;;;17.95;56.19
59190;BME280;50749;51.636;4.948;2023-04-01T00:54:41;99230.31;;;17.94;56.00
59190;BME280;50749;51.636;4.948;2023-04-01T00:57:12;99223.19;;;17.93;56.03
59190;BME280;50749;51.636;4.948;2023-04-01T00:59:44;99235.84;;;17.94;56.14
59190;BME280;50749;51.636;4.948;2023-04-01T01:02:12;99228.72;;;17.93;56.16
59190;BME280;50749;51.636;4.948;2023-04-01T01:04:38;99238.19;;;17.92;56.13
59190;BME280;50749;51.636;4.948;2023-04-01T01:07:28;99233.47;;;17.92;56.22
59190;BME280;50749;51.636;4.948;2023-04-01T01:10:26;99234.63;;;17.91;56.25
59190;BME280;50749;51.636;4.948;2023-04-01T01:15:51;99243.31;;;17.90;56.24
59190;BME280;50749;51.636;4.948;2023-04-01T01:26:46;99243.72;;;17.88;56.27
59190;BME280;50749;51.636;4.948;2023-04-01T01:37:13;99240.53;;;17.86;56.34
59190;BME280;50749;51.636;4.948;2023-04-01T01:39:42;99255.53;;;17.85;56.07
59190;BME280;50749;51.636;4.948;2023-04-01T01:42:11;99255.53;;;17.85;55.99
59190;BME280;50749;51.636;4.948;2023-04-01T01:44:40;99258.69;;;17.83;56.22
59190;BME280;50749;51.636;4.948;2023-04-01T01:47:07;99257.13;;;17.82;56.47
59190;BME280;50749;51.636;4.948;2023-04-01T01:49:35;99242.09;;;17.83;56.54
59190;BME280;50749;51.636;4.948;2023-04-01T01:52:02;99257.13;;;17.82;56.50
59190;BME280;50749;51.636;4.948;2023-04-01T01:54:29;99259.91;;;17.82;56.33
59190;BME280;50749;51.636;4.948;2023-04-01T01:57:13;99253.59;;;17.82;56.34
59190;BME280;50749;51.636;4.948;2023-04-01T01:59:42;99255.53;;;17.81;56.42
59190;BME280;50749;51.636;4.948;2023-04-01T02:02:09;99259.91;;;17.82;56.53
59190;BME280;50749;51.636;4.948;2023-04-01T02:04:40;99262.66;;;17.82;56.69
59190;BME280;50749;51.636;4.948;2023-04-01T02:07:12;99269.75;;;17.83;56.35
59190;BME280;50749;51.636;4.948;2023-04-01T02:09:40;99279.25;;;17.82;56.27
59190;BME280;50749;51.636;4.948;2023-04-01T02:12:07;99267.41;;;17.82;56.41
59190;BME280;50749;51.636;4.948;2023-04-01T02:14:47;99271.34;;;17.81;56.40
59190;BME280;50749;51.636;4.948;2023-04-01T02:17:17;99287.16;;;17.80;56.05
59190;BME280;50749;51.636;4.948;2023-04-01T02:19:52;99280.03;;;17.79;56.00
59190;BME280;50749;51.636;4.948;2023-04-01T02:22:25;99278.84;;;17.80;56.12
59190;BME280;50749;51.636;4.948;2023-04-01T02:24:54;99277.66;;;17.78;56.27
59190;BME280;50749;51.636;4.948;2023-04-01T02:27:23;99281.19;;;17.78;56.28
59190;BME280;50749;51.636;4.948;2023-04-01T02:29:50;99281.19;;;17.78;56.03
59190;BME280;50749;51.636;4.948;2023-04-01T02:32:17;99287.94;;;17.77;56.01
59190;BME280;50749;51.636;4.948;2023-04-01T02:34:44;99287.94;;;17.77;56.49
59190;BME280;50749;51.636;4.948;2023-04-01T02:37:11;99292.66;;;17.77;56.36
59190;BME280;50749;51.636;4.948;2023-04-01T02:39:38;99280.81;;;17.76;56.04
59190;BME280;50749;51.636;4.948;2023-04-01T02:42:05;99295.84;;;17.75;56.13
59190;BME280;50749;51.636;4.948;2023-04-01T02:44:31;99293.06;;;17.75;56.12
59190;BME280;50749;51.636;4.948;2023-04-01T02:46:57;99300.94;;;17.77;56.43
59190;BME280;50749;51.636;4.948;2023-04-01T02:49:23;99296.63;;;17.76;56.24
59190;BME280;50749;51.636;4.948;2023-04-01T02:51:48;99306.06;;;17.75;56.42
59190;BME280;50749;51.636;4.948;2023-04-01T02:54:14;99300.56;;;17.75;56.03
59190;BME280;50749;51.636;4.948;2023-04-01T02:56:40;99302.53;;;17.74;56.35
59190;BME280;50749;51.636;4.948;2023-04-01T02:59:06;99305.28;;;17.74;55.96
59190;BME280;50749;51.636;4.948;2023-04-01T03:01:32;99310.03;;;17.74;56.36
59190;BME280;50749;51.636;4.948;2023-04-01T03:03:58;99311.22;;;17.73;56.07
59190;BME280;50749;51.636;4.948;2023-04-01T03:06:23;99313.19;;;17.72;56.15
59190;BME280;50749;51.636;4.948;2023-04-01T03:08:50;99318.72;;;17.72;56.04
59190;BME280;50749;51.636;4.948;2023-04-01T03:11:15;99322.66;;;17.71;56.13
59190;BME280;50749;51.636;4.948;2023-04-01T03:13:41;99321.88;;;17.71;56.27
59190;BME280;50749;51.636;4.948;2023-04-01T03:16:07;99323.88;;;17.70;56.06
59190;BME280;50749;51.636;4.948;2023-04-01T03:18:33;99326.63;;;17.70;56.40
59190;BME280;50749;51.636;4.948;2023-04-01T03:21:21;99323.88;;;17.70;56.18
59190;BME280;50749;51.636;4.948;2023-04-01T03:23:48;99330.56;;;17.69;56.26
59190;BME280;50749;51.636;4.948;2023-04-01T03:26:14;99329.78;;;17.69;56.00
59190;BME280;50749;51.636;4.948;2023-04-01T03:28:40;99333.31;;;17.69;56.27
59190;BME280;50749;51.636;4.948;2023-04-01T03:31:06;99328.19;;;17.68;56.15
59190;BME280;50749;51.636;4.948;2023-04-01T03:33:32;99341.22;;;17.67;56.42
59190;BME280;50749;51.636;4.948;2023-04-01T03:35:58;99332.94;;;17.67;55.93
59190;BME280;50749;51.636;4.948;2023-04-01T03:38:24;99349.50;;;17.67;56.28
59190;BME280;50749;51.636;4.948;2023-04-01T03:40:50;99341.63;;;17.66;56.22
59190;BME280;50749;51.636;4.948;2023-04-01T03:43:16;99352.28;;;17.67;56.50
59190;BME280;50749;51.636;4.948;2023-04-01T03:45:49;99354.22;;;17.67;56.17
59190;BME280;50749;51.636;4.948;2023-04-01T03:48:16;99352.66;;;17.66;55.94
59190;BME280;50749;51.636;4.948;2023-04-01T03:50:42;99349.09;;;17.65;56.03
59190;BME280;50749;51.636;4.948;2023-04-01T03:53:08;99348.69;;;17.63;56.01
59190;BME280;50749;51.636;4.948;2023-04-01T03:55:36;99355.81;;;17.64;55.97
59190;BME280;50749;51.636;4.948;2023-04-01T03:58:03;99357.00;;;17.63;56.36
59190;BME280;50749;51.636;4.948;2023-04-01T04:00:29;99360.97;;;17.62;56.13
59190;BME280;50749;51.636;4.948;2023-04-01T04:02:56;99363.72;;;17.62;56.18
59190;BME280;50749;51.636;4.948;2023-04-01T04:05:23;99364.50;;;17.62;56.46
59190;BME280;50749;51.636;4.948;2023-04-01T04:07:49;99366.47;;;17.62;56.28
59190;BME280;50749;51.636;4.948;2023-04-01T04:10:15;99359.38;;;17.61;56.05
59190;BME280;50749;51.636;4.948;2023-04-01T04:12:41;99372.41;;;17.60;56.34
59190;BME280;50749;51.636;4.948;2023-04-01T04:15:07;99377.09;;;17.60;56.25
59190;BME280;50749;51.636;4.948;2023-04-01T04:17:34;99383.44;;;17.60;56.03
59190;BME280;50749;51.636;4.948;2023-04-01T04:20:00;99382.63;;;17.60;56.21
59190;BME280;50749;51.636;4.948;2023-04-01T04:22:26;99387.38;;;17.59;56.41
59190;BME280;50749;51.636;4.948;2023-04-01T04:24:52;99386.59;;;17.59;56.29
59190;BME280;50749;51.636;4.948;2023-04-01T04:27:18;99394.50;;;17.60;56.41
59190;BME280;50749;51.636;4.948;2023-04-01T04:29:44;99390.53;;;17.58;56.12
59190;BME280;50749;51.636;4.948;2023-04-01T04:32:10;99396.06;;;17.58;56.20
59190;BME280;50749;51.636;4.948;2023-04-01T04:34:36;99407.13;;;17.58;56.02
59190;BME280;50749;51.636;4.948;2023-04-01T04:37:02;99405.56;;;17.57;56.12
59190;BME280;50749;51.636;4.948;2023-04-01T04:39:28;99408.31;;;17.57;56.16
59190;BME280;50749;51.636;4.948;2023-04-01T04:41:55;99406.34;;;17.57;56.41
59190;BME280;50749;51.636;4.948;2023-04-01T04:44:21;99415.00;;;17.56;56.06
59190;BME280;50749;51.636;4.948;2023-04-01T04:46:47;99415.00;;;17.56;56.23
59190;BME280;50749;51.636;4.948;2023-04-01T04:49:12;99419.75;;;17.55;56.29
59190;BME280;50749;51.636;4.948;2023-04-01T04:51:38;99420.91;;;17.54;56.30
59190;BME280;50749;51.636;4.948;2023-04-01T04:54:05;99426.06;;;17.56;56.29
59190;BME280;50749;51.636;4.948;2023-04-01T04:56:32;99433.56;;;17.55;56.19
59190;BME280;50749;51.636;4.948;2023-04-01T04:58:58;99437.50;;;17.54;56.33
59190;BME280;50749;51.636;4.948;2023-04-01T05:01:25;99442.25;;;17.54;56.19
59190;BME280;50749;51.636;4.948;2023-04-01T05:03:51;99443.81;;;17.55;56.07
59190;BME280;50749;51.636;4.948;2023-04-01T05:06:17;99455.25;;;17.53;56.31
59190;BME280;50749;51.636;4.948;2023-04-01T05:08:44;99460.00;;;17.53;56.27
59190;BME280;50749;51.636;4.948;2023-04-01T05:11:18;99460.78;;;17.53;56.85
59190;BME280;50749;51.636;4.948;2023-04-01T05:13:45;99465.53;;;17.53;56.70
59190;BME280;50749;51.636;4.948;2023-04-01T05:16:17;99466.31;;;17.53;56.90
59190;BME280;50749;51.636;4.948;2023-04-01T05:18:43;99474.19;;;17.55;56.87
59190;BME280;50749;51.636;4.948;2023-04-01T05:21:11;99477.78;;;17.55;56.91
59190;BME280;50749;51.636;4.948;2023-04-01T05:23:38;99481.31;;;17.56;56.45
59190;BME280;50749;51.636;4.948;2023-04-01T05:26:05;99480.56;;;17.59;56.52
59190;BME280;50749;51.636;4.948;2023-04-01T05:28:31;99487.28;;;17.65;56.36
59190;BME280;50749;51.636;4.948;2023-04-01T05:31:01;99489.69;;;17.70;56.54
59190;BME280;50749;51.636;4.948;2023-04-01T05:33:28;99489.31;;;17.75;56.36
59190;BME280;50749;51.636;4.948;2023-04-01T05:35:54;99494.06;;;17.82;56.22
59190;BME280;50749;51.636;4.948;2023-04-01T05:38:20;99492.09;;;17.86;56.23
59190;BME280;50749;51.636;4.948;2023-04-01T05:40:46;99503.19;;;17.90;56.01
59190;BME280;50749;51.636;4.948;2023-04-01T05:43:12;99500.84;;;17.95;56.27
59190;BME280;50749;51.636;4.948;2023-04-01T05:45:38;99509.94;;;17.99;55.85
59190;BME280;50749;51.636;4.948;2023-04-01T05:48:04;99513.88;;;18.02;56.10
59190;BME280;50749;51.636;4.948;2023-04-01T05:50:30;99521.41;;;18.05;55.68
59190;BME280;50749;51.636;4.948;2023-04-01T05:52:56;99515.09;;;18.08;55.47
59190;BME280;50749;51.636;4.948;2023-04-01T05:55:22;99525.00;;;18.09;55.47
59190;BME280;50749;51.636;4.948;2023-04-01T05:57:47;99530.91;;;18.11;56.01
59190;BME280;50749;51.636;4.948;2023-04-01T06:00:16;99538.44;;;18.14;55.91
59190;BME280;50749;51.636;4.948;2023-04-01T06:02:42;99539.63;;;18.17;56.10
59190;BME280;50749;51.636;4.948;2023-04-01T06:05:21;99546.75;;;18.22;56.23
59190;BME280;50749;51.636;4.948;2023-04-01T06:07:47;99550.72;;;18.24;56.14
59190;BME280;50749;51.636;4.948;2023-04-01T06:15:26;99563.38;;;18.32;56.55
59190;BME280;50749;51.636;4.948;2023-04-01T06:23:39;99568.94;;;18.43;56.46
59190;BME280;50749;51.636;4.948;2023-04-01T06:28:46;99589.09;;;18.47;56.26
59190;BME280;50749;51.636;4.948;2023-04-01T06:37:01;99599.41;;;18.54;56.38
59190;BME280;50749;51.636;4.948;2023-04-01T06:42:32;99605.75;;;18.58;56.33
59190;BME280;50749;51.636;4.948;2023-04-01T06:56:18;99618.78;;;18.57;56.57
59190;BME280;50749;51.636;4.948;2023-04-01T06:58:51;99619.97;;;18.60;56.22
59190;BME280;50749;51.636;4.948;2023-04-01T07:01:26;99630.28;;;18.63;56.33
59190;BME280;50749;51.636;4.948;2023-04-01T07:03:57;99634.22;;;18.66;56.60
59190;BME280;50749;51.636;4.948;2023-04-01T07:08:59;99645.72;;;18.68;56.12
59190;BME280;50749;51.636;4.948;2023-04-01T07:11:32;99644.91;;;18.71;55.97
59190;BME280;50749;51.636;4.948;2023-04-01T07:14:02;99650.88;;;18.73;56.37
59190;BME280;50749;51.636;4.948;2023-04-01T07:16:33;99654.03;;;18.75;56.36
59190;BME280;50749;51.636;4.948;2023-04-01T07:19:28;99650.88;;;18.77;56.24
59190;BME280;50749;51.636;4.948;2023-04-01T07:22:02;99664.31;;;18.78;56.13
59190;BME280;50749;51.636;4.948;2023-04-01T07:24:36;99661.16;;;18.80;56.25
59190;BME280;50749;51.636;4.948;2023-04-01T07:27:02;99660.34;;;18.79;55.69
59190;BME280;50749;51.636;4.948;2023-04-01T07:29:28;99674.63;;;18.81;55.97
59190;BME280;50749;51.636;4.948;2023-04-01T07:34:41;99676.19;;;18.82;56.02
59190;BME280;50749;51.636;4.948;2023-04-01T07:37:24;99677.81;;;18.83;55.71
59190;BME280;50749;51.636;4.948;2023-04-01T07:45:44;99690.44;;;18.84;56.01
59190;BME280;50749;51.636;4.948;2023-04-01T07:51:25;99698.72;;;18.77;56.35
59190;BME280;50749;51.636;4.948;2023-04-01T07:54:11;99702.66;;;18.76;55.92
59190;BME280;50749;51.636;4.948;2023-04-01T07:59:58;99713.75;;;18.80;56.47
59190;BME280;50749;51.636;4.948;2023-04-01T08:02:53;99723.25;;;18.82;56.32
59190;BME280;50749;51.636;4.948;2023-04-01T08:08:19;99724.91;;;18.94;57.02
59190;BME280;50749;51.636;4.948;2023-04-01T08:11:00;99725.69;;;18.94;55.62
59190;BME280;50749;51.636;4.948;2023-04-01T08:21:07;99750.53;;;18.73;55.52
59190;BME280;50749;51.636;4.948;2023-04-01T08:23:43;99748.16;;;18.71;55.37
59190;BME280;50749;51.636;4.948;2023-04-01T08:26:14;99755.25;;;18.69;55.54
59190;BME280;50749;51.636;4.948;2023-04-01T08:28:48;99770.31;;;18.75;55.94
59190;BME280;50749;51.636;4.948;2023-04-01T08:31:32;99757.25;;;18.79;55.70
59190;BME280;50749;51.636;4.948;2023-04-01T08:34:03;99765.16;;;18.81;55.83
59190;BME280;50749;51.636;4.948;2023-04-01T08:36:34;99769.53;;;18.82;56.01
59190;BME280;50749;51.636;4.948;2023-04-01T08:39:06;99766.41;;;18.83;55.70
59190;BME280;50749;51.636;4.948;2023-04-01T08:44:30;99769.56;;;18.85;55.93
59190;BME280;50749;51.636;4.948;2023-04-01T08:47:19;99776.28;;;18.84;55.67
59190;BME280;50749;51.636;4.948;2023-04-01T08:52:36;99782.25;;;18.86;55.61
59190;BME280;50749;51.636;4.948;2023-04-01T09:00:50;99794.50;;;18.85;56.04
59190;BME280;50749;51.636;4.948;2023-04-01T09:03:43;99795.66;;;18.84;55.86
59190;BME280;50749;51.636;4.948;2023-04-01T09:09:52;99804.38;;;18.83;55.87
59190;BME280;50749;51.636;4.948;2023-04-01T09:17:51;99809.50;;;18.84;55.66
59190;BME280;50749;51.636;4.948;2023-04-01T09:28:31;99828.84;;;18.77;56.23
59190;BME280;50749;51.636;4.948;2023-04-01T09:34:15;99830.44;;;18.78;56.20
59190;BME280;50749;51.636;4.948;2023-04-01T09:43:02;99839.13;;;18.77;55.92
59190;BME280;50749;51.636;4.948;2023-04-01T09:45:37;99843.06;;;18.75;56.34
59190;BME280;50749;51.636;4.948;2023-04-01T10:01:44;99859.25;;;18.70;56.10
59190;BME280;50749;51.636;4.948;2023-04-01T10:56:58;99904.44;;;18.81;56.31
59190;BME280;50749;51.636;4.948;2023-04-01T11:13:12;99909.59;;;18.83;56.36
59190;BME280;50749;51.636;4.948;2023-04-01T11:32:54;99935.72;;;18.85;56.66
59190;BME280;50749;51.636;4.948;2023-04-01T11:41:46;99946.00;;;18.85;56.59
59190;BME280;50749;51.636;4.948;2023-04-01T11:44:21;99946.00;;;18.85;56.51
59190;BME280;50749;51.636;4.948;2023-04-01T11:47:13;99954.31;;;18.85;56.52
59190;BME280;50749;51.636;4.948;2023-04-01T11:58:23;99972.47;;;18.82;57.10
59190;BME280;50749;51.636;4.948;2023-04-01T12:01:06;99965.78;;;18.83;56.75
59190;BME280;50749;51.636;4.948;2023-04-01T12:06:33;99977.25;;;18.85;56.87
59190;BME280;50749;51.636;4.948;2023-04-01T12:09:30;99985.56;;;18.85;57.09
59190;BME280;50749;51.636;4.948;2023-04-01T12:15:23;99998.25;;;18.86;56.72
59190;BME280;50749;51.636;4.948;2023-04-01T12:20:57;99988.72;;;18.84;56.98
59190;BME280;50749;51.636;4.948;2023-04-01T12:23:41;99995.84;;;18.85;56.79
59190;BME280;50749;51.636;4.948;2023-04-01T12:50:16;100031.47;;;18.86;57.56
59190;BME280;50749;51.636;4.948;2023-04-01T12:52:48;100025.56;;;18.88;57.36
59190;BME280;50749;51.636;4.948;2023-04-01T12:55:37;100038.59;;;18.87;58.31
59190;BME280;50749;51.636;4.948;2023-04-01T13:03:22;100037.00;;;18.86;58.53
59190;BME280;50749;51.636;4.948;2023-04-01T13:12:17;100050.38;;;18.81;58.86
59190;BME280;50749;51.636;4.948;2023-04-01T13:14:50;100059.50;;;18.81;58.89
59190;BME280;50749;51.636;4.948;2023-04-01T13:17:32;100058.28;;;18.79;59.21
59190;BME280;50749;51.636;4.948;2023-04-01T13:27:54;100069.34;;;18.79;58.66
59190;BME280;50749;51.636;4.948;2023-04-01T13:44:32;100091.88;;;18.77;59.19
59190;BME280;50749;51.636;4.948;2023-04-01T13:47:24;100087.13;;;18.78;58.96
59190;BME280;50749;51.636;4.948;2023-04-01T13:53:21;100090.72;;;18.78;59.17
59190;BME280;50749;51.636;4.948;2023-04-01T14:01:23;100099.81;;;18.79;59.33
59190;BME280;50749;51.636;4.948;2023-04-01T14:07:00;100107.31;;;18.78;59.49
59190;BME280;50749;51.636;4.948;2023-04-01T14:12:05;100104.13;;;18.76;59.52
59190;BME280;50749;51.636;4.948;2023-04-01T14:17:19;100127.06;;;18.73;59.26
59190;BME280;50749;51.636;4.948;2023-04-01T14:28:25;100131.81;;;18.76;59.28
59190;BME280;50749;51.636;4.948;2023-04-01T14:31:21;100139.34;;;18.79;59.04
59190;BME280;50749;51.636;4.948;2023-04-01T14:48:25;100158.03;;;18.86;59.37
59190;BME280;50749;51.636;4.948;2023-04-01T14:51:02;100158.88;;;18.86;58.89
59190;BME280;50749;51.636;4.948;2023-04-01T14:53:36;100156.13;;;18.90;58.46
59190;BME280;50749;51.636;4.948;2023-04-01T14:56:04;100161.28;;;18.91;59.02
59190;BME280;50749;51.636;4.948;2023-04-01T15:01:40;100174.78;;;18.97;59.01
59190;BME280;50749;51.636;4.948;2023-04-01T15:07:45;100174.03;;;19.00;58.65
59190;BME280;50749;51.636;4.948;2023-04-01T15:12:49;100181.56;;;19.03;58.48
59190;BME280;50749;51.636;4.948;2023-04-01T15:15:29;100179.22;;;19.05;58.40
59190;BME280;50749;51.636;4.948;2023-04-01T15:18:14;100192.28;;;19.08;58.23
59190;BME280;50749;51.636;4.948;2023-04-01T15:23:28;100191.53;;;19.11;58.39
59190;BME280;50749;51.636;4.948;2023-04-01T15:31:16;100198.28;;;19.14;58.21
59190;BME280;50749;51.636;4.948;2023-04-01T15:33:55;100204.63;;;19.14;58.17
59190;BME280;50749;51.636;4.948;2023-04-01T15:37:04;100210.94;;;19.15;58.32
59190;BME280;50749;51.636;4.948;2023-04-01T15:42:17;100211.31;;;19.13;58.22
59190;BME280;50749;51.636;4.948;2023-04-01T15:47:32;100223.97;;;19.10;58.47
59190;BME280;50749;51.636;4.948;2023-04-01T15:52:53;100231.50;;;19.10;58.14
59190;BME280;50749;51.636;4.948;2023-04-01T15:58:48;100235.03;;;19.07;58.79
59190;BME280;50749;51.636;4.948;2023-04-01T16:01:26;100235.41;;;19.05;58.81
59190;BME280;50749;51.636;4.948;2023-04-01T16:07:04;100242.13;;;19.04;58.69
59190;BME280;50749;51.636;4.948;2023-04-01T16:12:58;100249.22;;;19.02;58.11
59190;BME280;50749;51.636;4.948;2023-04-01T16:16:02;100258.34;;;19.06;57.81
59190;BME280;50749;51.636;4.948;2023-04-01T16:18:36;100261.13;;;19.06;58.17
59190;BME280;50749;51.636;4.948;2023-04-01T16:29:46;100267.91;;;19.08;59.52
59190;BME280;50749;51.636;4.948;2023-04-01T16:45:40;100297.47;;;19.01;59.65
59190;BME280;50749;51.636;4.948;2023-04-01T16:48:14;100299.06;;;18.98;60.09
59190;BME280;50749;51.636;4.948;2023-04-01T16:50:43;100299.44;;;18.97;59.16
59190;BME280;50749;51.636;4.948;2023-04-01T16:55:43;100313.63;;;18.91;59.42
59190;BME280;50749;51.636;4.948;2023-04-01T16:58:23;100315.94;;;18.89;59.74
59190;BME280;50749;51.636;4.948;2023-04-01T17:03:36;100324.25;;;18.89;59.68
59190;BME280;50749;51.636;4.948;2023-04-01T17:12:05;100339.34;;;18.92;58.78
59190;BME280;50749;51.636;4.948;2023-04-01T17:23:10;100359.88;;;18.91;58.67
59190;BME280;50749;51.636;4.948;2023-04-01T17:42:19;100401.00;;;18.89;58.88
59190;BME280;50749;51.636;4.948;2023-04-01T17:44:59;100407.34;;;18.89;58.30
59190;BME280;50749;51.636;4.948;2023-04-01T17:56:08;100428.72;;;18.89;58.74
59190;BME280;50749;51.636;4.948;2023-04-01T17:58:50;100437.81;;;18.89;58.44
59190;BME280;50749;51.636;4.948;2023-04-01T18:01:45;100442.94;;;18.87;58.79
59190;BME280;50749;51.636;4.948;2023-04-01T18:04:30;100438.56;;;18.86;58.66
59190;BME280;50749;51.636;4.948;2023-04-01T18:10:26;100460.28;;;18.84;58.39
59190;BME280;50749;51.636;4.948;2023-04-01T18:21:43;100488.72;;;18.81;59.22
59190;BME280;50749;51.636;4.948;2023-04-01T18:27:06;100502.19;;;18.83;59.98
59190;BME280;50749;51.636;4.948;2023-04-01T18:30:00;100517.19;;;18.82;59.82
59190;BME280;50749;51.636;4.948;2023-04-01T18:32:37;100525.50;;;18.82;59.88
59190;BME280;50749;51.636;4.948;2023-04-01T18:35:29;100529.06;;;18.82;59.44
59190;BME280;50749;51.636;4.948;2023-04-01T18:38:00;100528.72;;;18.84;59.42
59190;BME280;50749;51.636;4.948;2023-04-01T18:40:34;100535.44;;;18.83;59.08
59190;BME280;50749;51.636;4.948;2023-04-01T18:45:39;100559.19;;;18.84;59.04
59190;BME280;50749;51.636;4.948;2023-04-01T18:51:20;100558.75;;;18.82;59.07
59190;BME280;50749;51.636;4.948;2023-04-01T18:53:57;100565.81;;;18.79;58.75
59190;BME280;50749;51.636;4.948;2023-04-01T18:56:32;100571.81;;;18.81;58.38
59190;BME280;50749;51.636;4.948;2023-04-01T18:59:26;100580.09;;;18.81;58.33
59190;BME280;50749;51.636;4.948;2023-04-01T19:04:52;100601.06;;;18.82;58.87
59190;BME280;50749;51.636;4.948;2023-04-01T19:12:48;100619.34;;;18.83;58.99
59190;BME280;50749;51.636;4.948;2023-04-01T19:15:34;100618.16;;;18.84;58.67
59190;BME280;50749;51.636;4.948;2023-04-01T19:21:21;100639.56;;;18.87;58.54
59190;BME280;50749;51.636;4.948;2023-04-01T19:24:39;100638.41;;;18.88;58.67
59190;BME280;50749;51.636;4.948;2023-04-01T19:27:35;100645.53;;;18.89;58.41
59190;BME280;50749;51.636;4.948;2023-04-01T19:30:10;100654.66;;;18.90;58.57
59190;BME280;50749;51.636;4.948;2023-04-01T19:38:31;100660.63;;;18.92;58.64
59190;BME280;50749;51.636;4.948;2023-04-01T19:41:27;100671.72;;;18.92;58.29
59190;BME280;50749;51.636;4.948;2023-04-01T19:46:33;100675.28;;;18.92;58.93
59190;BME280;50749;51.636;4.948;2023-04-01T19:54:39;100690.44;;;18.99;58.38
59190;BME280;50749;51.636;4.948;2023-04-01T19:59:45;100704.34;;;19.02;58.23
59190;BME280;50749;51.636;4.948;2023-04-01T20:04:48;100722.94;;;19.02;58.51
59190;BME280;50749;51.636;4.948;2023-04-01T20:07:24;100713.00;;;19.01;58.15
59190;BME280;50749;51.636;4.948;2023-04-01T20:09:54;100731.97;;;18.99;58.67
59190;BME280;50749;51.636;4.948;2023-04-01T20:12:38;100735.19;;;19.01;58.30
59190;BME280;50749;51.636;4.948;2023-04-01T20:17:58;100750.22;;;19.00;58.69
59190;BME280;50749;51.636;4.948;2023-04-01T20:20:28;100756.91;;;18.99;58.59
59190;BME280;50749;51.636;4.948;2023-04-01T20:23:16;100762.44;;;18.99;58.31
59190;BME280;50749;51.636;4.948;2023-04-01T20:25:53;100771.91;;;18.98;58.94
59190;BME280;50749;51.636;4.948;2023-04-01T20:28:28;100767.19;;;18.98;58.91
59190;BME280;50749;51.636;4.948;2023-04-01T20:36:33;100789.72;;;18.97;58.47
59190;BME280;50749;51.636;4.948;2023-04-01T20:55:13;100822.38;;;18.87;58.50
59190;BME280;50749;51.636;4.948;2023-04-01T21:03:26;100839.97;;;18.79;58.00
59190;BME280;50749;51.636;4.948;2023-04-01T21:15:12;100857.72;;;18.74;58.57
59190;BME280;50749;51.636;4.948;2023-04-01T21:20:32;100884.16;;;18.72;58.64
59190;BME280;50749;51.636;4.948;2023-04-01T21:23:08;100882.44;;;18.67;57.98
59190;BME280;50749;51.636;4.948;2023-04-01T21:37:45;100913.28;;;18.66;58.28
59190;BME280;50749;51.636;4.948;2023-04-01T21:40:27;100924.34;;;18.66;58.35
59190;BME280;50749;51.636;4.948;2023-04-01T22:05:25;100972.97;;;18.47;58.48
59190;BME280;50749;51.636;4.948;2023-04-01T22:08:14;100973.69;;;18.44;58.14
59190;BME280;50749;51.636;4.948;2023-04-01T22:10:58;100976.81;;;18.43;58.21
59190;BME280;50749;51.636;4.948;2023-04-01T22:13:41;100985.47;;;18.41;58.33
59190;BME280;50749;51.636;4.948;2023-04-01T22:16:28;100992.53;;;18.38;58.13
59190;BME280;50749;51.636;4.948;2023-04-01T22:19:10;100994.50;;;18.38;58.00
59190;BME280;50749;51.636;4.948;2023-04-01T22:22:01;101002.38;;;18.36;58.07
59190;BME280;50749;51.636;4.948;2023-04-01T22:25:06;101009.03;;;18.35;57.93
59190;BME280;50749;51.636;4.948;2023-04-01T22:39:08;101034.94;;;18.27;58.27
59190;BME280;50749;51.636;4.948;2023-04-01T22:50:22;101050.66;;;18.23;58.22
59190;BME280;50749;51.636;4.948;2023-04-01T22:52:56;101058.47;;;18.20;58.14
59190;BME280;50749;51.636;4.948;2023-04-01T22:55:29;101062.41;;;18.19;58.06
59190;BME280;50749;51.636;4.948;2023-04-01T22:58:03;101066.34;;;18.18;58.30
59190;BME280;50749;51.636;4.948;2023-04-01T23:00:43;101069.44;;;18.17;58.26
59190;BME280;50749;51.636;4.948;2023-04-01T23:05:47;101075.34;;;18.15;58.15
59190;BME280;50749;51.636;4.948;2023-04-01T23:11:12;101091.50;;;18.13;57.70
59190;BME280;50749;51.636;4.948;2023-04-01T23:16:36;101103.25;;;18.10;57.68
59190;BME280;50749;51.636;4.948;2023-04-01T23:19:15;101096.94;;;18.10;57.80
59190;BME280;50749;51.636;4.948;2023-04-01T23:21:51;101100.84;;;18.09;57.71